sensor_id;sensor_type;location;lat;lon;timestamp;P1;durP1;ratioP1;P2;durP2;ratioP2
21999;SDS011;11164;48.818;2.322;2023-11-21T00:01:15;7.30;;;2.92;;
21999;SDS011;11164;48.818;2.322;2023-11-21T00:03:40;7.07;;;2.90;;
21999;SDS011;11164;48.818;2.322;2023-11-21T00:06:05;10.02;;;3.33;;
21999;SDS011;11164;48.818;2.322;2023-11-21T00:08:33;7.95;;;2.47;;
21999;SDS011;11164;48.818;2.322;2023-11-21T00:10:59;11.15;;;3.00;;
21999;SDS011;11164;48.818;2.322;2023-11-21T00:13:25;8.85;;;2.88;;
21999;SDS011;11164;48.818;2.322;2023-11-21T00:15:51;7.47;;;2.75;;
21999;SDS011;11164;48.818;2.322;2023-11-21T00:18:16;9.43;;;2.70;;
21999;SDS011;11164;48.818;2.322;2023-11-21T00:20:41;8.25;;;2.67;;
21999;SDS011;11164;48.818;2.322;2023-11-21T00:23:07;6.43;;;2.85;;
21999;SDS011;11164;48.818;2.322;2023-11-21T00:25:32;7.32;;;2.67;;
21999;SDS011;11164;48.818;2.322;2023-11-21T00:27:57;9.98;;;2.53;;
21999;SDS011;11164;48.818;2.322;2023-11-21T00:30:22;9.13;;;2.75;;
21999;SDS011;11164;48.818;2.322;2023-11-21T00:32:48;8.77;;;2.75;;
21999;SDS011;11164;48.818;2.322;2023-11-21T00:35:13;8.95;;;2.90;;
21999;SDS011;11164;48.818;2.322;2023-11-21T00:37:39;9.95;;;3.00;;
21999;SDS011;11164;48.818;2.322;2023-11-21T00:40:04;13.70;;;3.10;;
21999;SDS011;11164;48.818;2.322;2023-11-21T00:42:30;10.63;;;2.58;;
21999;SDS011;11164;48.818;2.322;2023-11-21T00:44:58;8.85;;;3.00;;
21999;SDS011;11164;48.818;2.322;2023-11-21T00:47:24;8.13;;;2.80;;
21999;SDS011;11164;48.818;2.322;2023-11-21T00:49:49;10.65;;;2.80;;
21999;SDS011;11164;48.818;2.322;2023-11-21T00:52:14;8.95;;;3.10;;
21999;SDS011;11164;48.818;2.322;2023-11-21T00:54:40;9.75;;;2.90;;
21999;SDS011;11164;48.818;2.322;2023-11-21T00:57:06;8.75;;;3.10;;
21999;SDS011;11164;48.818;2.322;2023-11-21T00:59:31;5.68;;;2.60;;
21999;SDS011;11164;48.818;2.322;2023-11-21T01:01:56;7.95;;;2.97;;
21999;SDS011;11164;48.818;2.322;2023-11-21T01:07:00;9.05;;;3.20;;
21999;SDS011;11164;48.818;2.322;2023-11-21T01:09:25;6.63;;;2.58;;
21999;SDS011;11164;48.818;2.322;2023-11-21T01:11:50;10.35;;;2.75;;
21999;SDS011;11164;48.818;2.322;2023-11-21T01:14:16;7.72;;;2.58;;
21999;SDS011;11164;48.818;2.322;2023-11-21T01:16:42;6.95;;;2.85;;
21999;SDS011;11164;48.818;2.322;2023-11-21T01:19:08;7.75;;;2.78;;
21999;SDS011;11164;48.818;2.322;2023-11-21T01:21:34;6.53;;;2.80;;
21999;SDS011;11164;48.818;2.322;2023-11-21T01:23:59;9.20;;;3.10;;
21999;SDS011;11164;48.818;2.322;2023-11-21T01:26:24;11.00;;;3.50;;
21999;SDS011;11164;48.818;2.322;2023-11-21T01:28:50;5.75;;;2.85;;
21999;SDS011;11164;48.818;2.322;2023-11-21T01:31:15;13.38;;;3.63;;
21999;SDS011;11164;48.818;2.322;2023-11-21T01:33:41;6.07;;;3.05;;
21999;SDS011;11164;48.818;2.322;2023-11-21T01:36:06;7.38;;;2.80;;
21999;SDS011;11164;48.818;2.322;2023-11-21T01:38:32;7.65;;;2.85;;
21999;SDS011;11164;48.818;2.322;2023-11-21T01:40:57;10.60;;;3.10;;
21999;SDS011;11164;48.818;2.322;2023-11-21T01:43:25;8.15;;;3.10;;
21999;SDS011;11164;48.818;2.322;2023-11-21T01:45:51;7.85;;;3.22;;
21999;SDS011;11164;48.818;2.322;2023-11-21T01:48:16;8.23;;;2.75;;
21999;SDS011;11164;48.818;2.322;2023-11-21T01:50:43;10.10;;;3.47;;
21999;SDS011;11164;48.818;2.322;2023-11-21T01:53:08;8.73;;;3.40;;
21999;SDS011;11164;48.818;2.322;2023-11-21T01:55:34;7.70;;;3.47;;
21999;SDS011;11164;48.818;2.322;2023-11-21T01:57:59;10.30;;;3.33;;
21999;SDS011;11164;48.818;2.322;2023-11-21T02:00:25;8.43;;;3.08;;
21999;SDS011;11164;48.818;2.322;2023-11-21T02:02:53;10.50;;;3.67;;
21999;SDS011;11164;48.818;2.322;2023-11-21T02:05:18;9.55;;;3.22;;
21999;SDS011;11164;48.818;2.322;2023-11-21T02:07:45;8.15;;;3.00;;
21999;SDS011;11164;48.818;2.322;2023-11-21T02:10:13;9.10;;;3.20;;
21999;SDS011;11164;48.818;2.322;2023-11-21T02:12:40;9.40;;;3.25;;
21999;SDS011;11164;48.818;2.322;2023-11-21T02:15:08;6.68;;;3.08;;
21999;SDS011;11164;48.818;2.322;2023-11-21T02:17:43;9.18;;;3.08;;
21999;SDS011;11164;48.818;2.322;2023-11-21T02:20:10;8.13;;;3.50;;
21999;SDS011;11164;48.818;2.322;2023-11-21T02:22:40;7.10;;;3.10;;
21999;SDS011;11164;48.818;2.322;2023-11-21T02:25:07;9.88;;;3.13;;
21999;SDS011;11164;48.818;2.322;2023-11-21T02:27:33;9.43;;;3.17;;
21999;SDS011;11164;48.818;2.322;2023-11-21T02:29:58;7.88;;;2.97;;
21999;SDS011;11164;48.818;2.322;2023-11-21T02:32:24;12.15;;;3.17;;
21999;SDS011;11164;48.818;2.322;2023-11-21T02:34:51;6.93;;;2.67;;
21999;SDS011;11164;48.818;2.322;2023-11-21T02:37:16;8.18;;;3.60;;
21999;SDS011;11164;48.818;2.322;2023-11-21T02:39:41;9.07;;;2.70;;
21999;SDS011;11164;48.818;2.322;2023-11-21T02:42:07;11.27;;;2.90;;
21999;SDS011;11164;48.818;2.322;2023-11-21T02:44:32;7.47;;;3.00;;
21999;SDS011;11164;48.818;2.322;2023-11-21T02:46:58;8.07;;;2.80;;
21999;SDS011;11164;48.818;2.322;2023-11-21T02:49:25;6.97;;;2.75;;
21999;SDS011;11164;48.818;2.322;2023-11-21T02:51:53;10.10;;;2.88;;
21999;SDS011;11164;48.818;2.322;2023-11-21T02:54:19;8.60;;;2.80;;
21999;SDS011;11164;48.818;2.322;2023-11-21T02:56:47;11.07;;;3.38;;
21999;SDS011;11164;48.818;2.322;2023-11-21T02:59:12;9.27;;;2.88;;
21999;SDS011;11164;48.818;2.322;2023-11-21T03:01:37;5.47;;;2.60;;
21999;SDS011;11164;48.818;2.322;2023-11-21T03:04:03;7.10;;;2.80;;
21999;SDS011;11164;48.818;2.322;2023-11-21T03:06:28;7.78;;;2.80;;
21999;SDS011;11164;48.818;2.322;2023-11-21T03:08:54;8.10;;;3.10;;
21999;SDS011;11164;48.818;2.322;2023-11-21T03:11:19;9.20;;;2.80;;
21999;SDS011;11164;48.818;2.322;2023-11-21T03:13:45;8.45;;;3.05;;
21999;SDS011;11164;48.818;2.322;2023-11-21T03:16:11;8.63;;;3.08;;
21999;SDS011;11164;48.818;2.322;2023-11-21T03:18:37;8.32;;;2.95;;
21999;SDS011;11164;48.818;2.322;2023-11-21T03:21:04;11.73;;;3.13;;
21999;SDS011;11164;48.818;2.322;2023-11-21T03:23:30;8.07;;;2.90;;
21999;SDS011;11164;48.818;2.322;2023-11-21T03:25:56;9.20;;;2.95;;
21999;SDS011;11164;48.818;2.322;2023-11-21T03:28:22;6.28;;;2.55;;
21999;SDS011;11164;48.818;2.322;2023-11-21T03:30:48;8.35;;;2.85;;
21999;SDS011;11164;48.818;2.322;2023-11-21T03:33:14;7.88;;;3.35;;
21999;SDS011;11164;48.818;2.322;2023-11-21T03:35:39;7.43;;;3.65;;
21999;SDS011;11164;48.818;2.322;2023-11-21T03:38:06;7.60;;;2.97;;
21999;SDS011;11164;48.818;2.322;2023-11-21T03:40:32;12.13;;;2.90;;
21999;SDS011;11164;48.818;2.322;2023-11-21T03:42:58;7.57;;;2.78;;
21999;SDS011;11164;48.818;2.322;2023-11-21T03:45:23;9.68;;;3.05;;
21999;SDS011;11164;48.818;2.322;2023-11-21T03:47:49;9.30;;;3.22;;
21999;SDS011;11164;48.818;2.322;2023-11-21T03:50:14;7.70;;;2.70;;
21999;SDS011;11164;48.818;2.322;2023-11-21T03:52:40;8.27;;;2.78;;
21999;SDS011;11164;48.818;2.322;2023-11-21T03:55:05;11.15;;;3.40;;
21999;SDS011;11164;48.818;2.322;2023-11-21T03:57:31;8.52;;;3.05;;
21999;SDS011;11164;48.818;2.322;2023-11-21T03:59:56;6.90;;;3.00;;
21999;SDS011;11164;48.818;2.322;2023-11-21T04:02:22;8.60;;;2.90;;
21999;SDS011;11164;48.818;2.322;2023-11-21T04:04:50;13.00;;;3.38;;
21999;SDS011;11164;48.818;2.322;2023-11-21T04:07:16;7.80;;;3.25;;
21999;SDS011;11164;48.818;2.322;2023-11-21T04:09:42;7.63;;;3.38;;
21999;SDS011;11164;48.818;2.322;2023-11-21T04:12:08;10.98;;;3.30;;
21999;SDS011;11164;48.818;2.322;2023-11-21T04:14:36;9.32;;;3.38;;
21999;SDS011;11164;48.818;2.322;2023-11-21T04:17:01;7.32;;;3.38;;
21999;SDS011;11164;48.818;2.322;2023-11-21T04:19:29;7.65;;;3.15;;
21999;SDS011;11164;48.818;2.322;2023-11-21T04:21:54;9.18;;;3.38;;
21999;SDS011;11164;48.818;2.322;2023-11-21T04:24:19;8.95;;;4.32;;
21999;SDS011;11164;48.818;2.322;2023-11-21T04:26:45;8.18;;;3.03;;
21999;SDS011;11164;48.818;2.322;2023-11-21T04:29:10;11.52;;;3.70;;
21999;SDS011;11164;48.818;2.322;2023-11-21T04:31:36;7.15;;;3.42;;
21999;SDS011;11164;48.818;2.322;2023-11-21T04:34:02;10.25;;;3.65;;
21999;SDS011;11164;48.818;2.322;2023-11-21T04:36:29;9.70;;;3.60;;
21999;SDS011;11164;48.818;2.322;2023-11-21T04:38:55;9.52;;;4.03;;
21999;SDS011;11164;48.818;2.322;2023-11-21T04:41:21;8.27;;;3.72;;
21999;SDS011;11164;48.818;2.322;2023-11-21T04:43:46;11.60;;;3.90;;
21999;SDS011;11164;48.818;2.322;2023-11-21T04:46:12;7.65;;;3.33;;
21999;SDS011;11164;48.818;2.322;2023-11-21T04:48:37;9.25;;;3.63;;
21999;SDS011;11164;48.818;2.322;2023-11-21T04:51:03;10.43;;;3.80;;
21999;SDS011;11164;48.818;2.322;2023-11-21T04:53:30;8.15;;;3.97;;
21999;SDS011;11164;48.818;2.322;2023-11-21T04:55:56;7.28;;;3.75;;
21999;SDS011;11164;48.818;2.322;2023-11-21T04:58:21;10.55;;;4.20;;
21999;SDS011;11164;48.818;2.322;2023-11-21T05:00:46;11.65;;;4.78;;
21999;SDS011;11164;48.818;2.322;2023-11-21T05:03:12;9.85;;;4.43;;
21999;SDS011;11164;48.818;2.322;2023-11-21T05:05:37;10.82;;;5.07;;
21999;SDS011;11164;48.818;2.322;2023-11-21T05:08:02;11.75;;;5.03;;
21999;SDS011;11164;48.818;2.322;2023-11-21T05:10:28;15.02;;;6.28;;
21999;SDS011;11164;48.818;2.322;2023-11-21T05:12:54;11.35;;;5.53;;
21999;SDS011;11164;48.818;2.322;2023-11-21T05:15:20;13.10;;;6.10;;
21999;SDS011;11164;48.818;2.322;2023-11-21T05:17:46;12.05;;;5.60;;
21999;SDS011;11164;48.818;2.322;2023-11-21T05:20:18;11.25;;;5.50;;
21999;SDS011;11164;48.818;2.322;2023-11-21T05:22:47;9.18;;;5.30;;
21999;SDS011;11164;48.818;2.322;2023-11-21T05:25:15;12.30;;;5.75;;
21999;SDS011;11164;48.818;2.322;2023-11-21T05:27:43;9.15;;;5.10;;
21999;SDS011;11164;48.818;2.322;2023-11-21T05:30:13;9.88;;;5.15;;
21999;SDS011;11164;48.818;2.322;2023-11-21T05:32:39;8.85;;;5.72;;
21999;SDS011;11164;48.818;2.322;2023-11-21T05:35:05;12.50;;;5.85;;
21999;SDS011;11164;48.818;2.322;2023-11-21T05:37:37;9.30;;;5.70;;
21999;SDS011;11164;48.818;2.322;2023-11-21T05:40:04;10.57;;;5.25;;
21999;SDS011;11164;48.818;2.322;2023-11-21T05:42:31;10.68;;;5.25;;
21999;SDS011;11164;48.818;2.322;2023-11-21T05:44:57;9.95;;;5.57;;
21999;SDS011;11164;48.818;2.322;2023-11-21T05:47:24;10.38;;;5.38;;
21999;SDS011;11164;48.818;2.322;2023-11-21T05:49:51;10.48;;;5.57;;
21999;SDS011;11164;48.818;2.322;2023-11-21T05:52:17;10.10;;;5.47;;
21999;SDS011;11164;48.818;2.322;2023-11-21T05:54:43;10.48;;;5.72;;
21999;SDS011;11164;48.818;2.322;2023-11-21T05:57:08;8.93;;;5.35;;
21999;SDS011;11164;48.818;2.322;2023-11-21T05:59:33;9.70;;;5.65;;
21999;SDS011;11164;48.818;2.322;2023-11-21T06:01:59;12.38;;;5.38;;
21999;SDS011;11164;48.818;2.322;2023-11-21T06:04:24;9.63;;;5.55;;
21999;SDS011;11164;48.818;2.322;2023-11-21T06:06:51;10.40;;;5.40;;
21999;SDS011;11164;48.818;2.322;2023-11-21T06:09:17;11.23;;;5.32;;
21999;SDS011;11164;48.818;2.322;2023-11-21T06:11:43;9.77;;;4.70;;
21999;SDS011;11164;48.818;2.322;2023-11-21T06:14:08;8.43;;;5.05;;
21999;SDS011;11164;48.818;2.322;2023-11-21T06:16:34;8.15;;;5.53;;
21999;SDS011;11164;48.818;2.322;2023-11-21T06:19:00;9.75;;;4.68;;
21999;SDS011;11164;48.818;2.322;2023-11-21T06:21:26;7.63;;;3.90;;
21999;SDS011;11164;48.818;2.322;2023-11-21T06:23:51;8.55;;;4.93;;
21999;SDS011;11164;48.818;2.322;2023-11-21T06:26:18;8.68;;;4.72;;
21999;SDS011;11164;48.818;2.322;2023-11-21T06:28:43;10.65;;;5.22;;
21999;SDS011;11164;48.818;2.322;2023-11-21T06:31:09;8.43;;;4.88;;
21999;SDS011;11164;48.818;2.322;2023-11-21T06:33:35;12.23;;;5.90;;
21999;SDS011;11164;48.818;2.322;2023-11-21T06:36:01;10.25;;;5.78;;
21999;SDS011;11164;48.818;2.322;2023-11-21T06:38:28;12.07;;;6.43;;
21999;SDS011;11164;48.818;2.322;2023-11-21T06:40:55;10.18;;;6.05;;
21999;SDS011;11164;48.818;2.322;2023-11-21T06:43:21;9.32;;;5.85;;
21999;SDS011;11164;48.818;2.322;2023-11-21T06:45:47;10.48;;;5.70;;
21999;SDS011;11164;48.818;2.322;2023-11-21T06:48:12;8.65;;;4.38;;
21999;SDS011;11164;48.818;2.322;2023-11-21T06:50:38;8.25;;;4.50;;
21999;SDS011;11164;48.818;2.322;2023-11-21T06:53:03;7.05;;;4.03;;
21999;SDS011;11164;48.818;2.322;2023-11-21T06:55:31;8.20;;;4.05;;
21999;SDS011;11164;48.818;2.322;2023-11-21T06:57:57;6.88;;;4.40;;
21999;SDS011;11164;48.818;2.322;2023-11-21T07:00:23;9.30;;;4.88;;
21999;SDS011;11164;48.818;2.322;2023-11-21T07:02:48;8.10;;;4.35;;
21999;SDS011;11164;48.818;2.322;2023-11-21T07:05:14;8.27;;;5.13;;
21999;SDS011;11164;48.818;2.322;2023-11-21T07:07:40;10.73;;;5.60;;
21999;SDS011;11164;48.818;2.322;2023-11-21T07:10:05;9.63;;;5.65;;
21999;SDS011;11164;48.818;2.322;2023-11-21T07:12:31;10.02;;;5.72;;
21999;SDS011;11164;48.818;2.322;2023-11-21T07:14:57;10.68;;;6.20;;
21999;SDS011;11164;48.818;2.322;2023-11-21T07:17:23;10.82;;;6.40;;
21999;SDS011;11164;48.818;2.322;2023-11-21T07:19:49;11.65;;;6.78;;
21999;SDS011;11164;48.818;2.322;2023-11-21T07:22:15;13.25;;;6.82;;
21999;SDS011;11164;48.818;2.322;2023-11-21T07:24:47;13.25;;;7.30;;
21999;SDS011;11164;48.818;2.322;2023-11-21T07:27:14;12.55;;;6.97;;
21999;SDS011;11164;48.818;2.322;2023-11-21T07:29:39;11.85;;;6.75;;
21999;SDS011;11164;48.818;2.322;2023-11-21T07:32:05;12.93;;;7.15;;
21999;SDS011;11164;48.818;2.322;2023-11-21T07:34:31;14.82;;;7.13;;
21999;SDS011;11164;48.818;2.322;2023-11-21T07:36:56;15.80;;;7.82;;
21999;SDS011;11164;48.818;2.322;2023-11-21T07:39:22;14.60;;;8.32;;
21999;SDS011;11164;48.818;2.322;2023-11-21T07:41:47;13.27;;;7.43;;
21999;SDS011;11164;48.818;2.322;2023-11-21T07:44:13;13.45;;;7.47;;
21999;SDS011;11164;48.818;2.322;2023-11-21T07:46:40;14.70;;;7.75;;
21999;SDS011;11164;48.818;2.322;2023-11-21T07:49:06;14.30;;;7.43;;
21999;SDS011;11164;48.818;2.322;2023-11-21T07:51:32;16.20;;;7.95;;
21999;SDS011;11164;48.818;2.322;2023-11-21T07:53:57;15.20;;;8.50;;
21999;SDS011;11164;48.818;2.322;2023-11-21T07:56:23;14.93;;;8.35;;
21999;SDS011;11164;48.818;2.322;2023-11-21T07:58:48;15.70;;;7.90;;
21999;SDS011;11164;48.818;2.322;2023-11-21T08:01:15;16.58;;;9.02;;
21999;SDS011;11164;48.818;2.322;2023-11-21T08:03:40;18.27;;;8.93;;
21999;SDS011;11164;48.818;2.322;2023-11-21T08:06:06;15.20;;;8.27;;
21999;SDS011;11164;48.818;2.322;2023-11-21T08:08:32;17.65;;;9.50;;
21999;SDS011;11164;48.818;2.322;2023-11-21T08:10:57;18.60;;;9.35;;
21999;SDS011;11164;48.818;2.322;2023-11-21T08:13:26;16.23;;;9.25;;
21999;SDS011;11164;48.818;2.322;2023-11-21T08:15:55;18.23;;;9.95;;
21999;SDS011;11164;48.818;2.322;2023-11-21T08:18:21;18.55;;;8.82;;
21999;SDS011;11164;48.818;2.322;2023-11-21T08:20:47;19.90;;;10.38;;
21999;SDS011;11164;48.818;2.322;2023-11-21T08:23:16;18.15;;;10.07;;
21999;SDS011;11164;48.818;2.322;2023-11-21T08:25:44;20.58;;;9.95;;
21999;SDS011;11164;48.818;2.322;2023-11-21T08:28:10;18.63;;;10.45;;
21999;SDS011;11164;48.818;2.322;2023-11-21T08:30:36;19.38;;;9.98;;
21999;SDS011;11164;48.818;2.322;2023-11-21T08:33:02;18.00;;;9.88;;
21999;SDS011;11164;48.818;2.322;2023-11-21T08:35:28;21.92;;;12.15;;
21999;SDS011;11164;48.818;2.322;2023-11-21T08:37:54;22.23;;;11.23;;
21999;SDS011;11164;48.818;2.322;2023-11-21T08:40:20;20.65;;;9.75;;
21999;SDS011;11164;48.818;2.322;2023-11-21T08:42:46;21.88;;;9.98;;
21999;SDS011;11164;48.818;2.322;2023-11-21T08:45:11;22.92;;;11.27;;
21999;SDS011;11164;48.818;2.322;2023-11-21T08:47:38;18.98;;;10.80;;
21999;SDS011;11164;48.818;2.322;2023-11-21T08:50:05;20.48;;;10.32;;
21999;SDS011;11164;48.818;2.322;2023-11-21T08:52:32;21.33;;;10.13;;
21999;SDS011;11164;48.818;2.322;2023-11-21T08:55:02;20.35;;;10.50;;
21999;SDS011;11164;48.818;2.322;2023-11-21T08:57:33;19.27;;;10.35;;
21999;SDS011;11164;48.818;2.322;2023-11-21T09:00:01;19.60;;;10.35;;
21999;SDS011;11164;48.818;2.322;2023-11-21T09:02:27;17.88;;;10.52;;
21999;SDS011;11164;48.818;2.322;2023-11-21T09:04:52;18.27;;;9.65;;
21999;SDS011;11164;48.818;2.322;2023-11-21T09:07:22;16.65;;;8.65;;
21999;SDS011;11164;48.818;2.322;2023-11-21T09:09:47;20.38;;;9.93;;
21999;SDS011;11164;48.818;2.322;2023-11-21T09:12:14;15.32;;;9.40;;
21999;SDS011;11164;48.818;2.322;2023-11-21T09:14:39;17.42;;;9.18;;
21999;SDS011;11164;48.818;2.322;2023-11-21T09:17:05;18.90;;;9.63;;
21999;SDS011;11164;48.818;2.322;2023-11-21T09:19:36;20.55;;;11.68;;
21999;SDS011;11164;48.818;2.322;2023-11-21T09:22:03;17.90;;;9.05;;
21999;SDS011;11164;48.818;2.322;2023-11-21T09:24:30;18.88;;;9.48;;
21999;SDS011;11164;48.818;2.322;2023-11-21T09:26:55;17.48;;;9.25;;
21999;SDS011;11164;48.818;2.322;2023-11-21T09:29:21;16.85;;;8.77;;
21999;SDS011;11164;48.818;2.322;2023-11-21T09:31:47;15.48;;;8.75;;
21999;SDS011;11164;48.818;2.322;2023-11-21T09:34:12;16.17;;;8.73;;
21999;SDS011;11164;48.818;2.322;2023-11-21T09:36:39;15.00;;;8.77;;
21999;SDS011;11164;48.818;2.322;2023-11-21T09:39:06;14.27;;;7.97;;
21999;SDS011;11164;48.818;2.322;2023-11-21T09:41:37;13.80;;;7.72;;
21999;SDS011;11164;48.818;2.322;2023-11-21T09:44:09;15.77;;;8.77;;
21999;SDS011;11164;48.818;2.322;2023-11-21T09:46:39;19.80;;;9.55;;
21999;SDS011;11164;48.818;2.322;2023-11-21T09:49:07;14.70;;;8.07;;
21999;SDS011;11164;48.818;2.322;2023-11-21T09:51:37;15.45;;;7.13;;
21999;SDS011;11164;48.818;2.322;2023-11-21T09:54:07;14.65;;;7.72;;
21999;SDS011;11164;48.818;2.322;2023-11-21T09:56:35;14.00;;;7.22;;
21999;SDS011;11164;48.818;2.322;2023-11-21T09:59:01;13.05;;;7.28;;
21999;SDS011;11164;48.818;2.322;2023-11-21T10:01:32;12.10;;;6.95;;
21999;SDS011;11164;48.818;2.322;2023-11-21T10:04:00;10.95;;;5.93;;
21999;SDS011;11164;48.818;2.322;2023-11-21T10:06:26;13.45;;;6.70;;
21999;SDS011;11164;48.818;2.322;2023-11-21T10:08:52;10.00;;;5.90;;
21999;SDS011;11164;48.818;2.322;2023-11-21T10:11:19;8.45;;;4.57;;
21999;SDS011;11164;48.818;2.322;2023-11-21T10:13:47;9.00;;;5.13;;
21999;SDS011;11164;48.818;2.322;2023-11-21T10:16:15;8.77;;;4.30;;
21999;SDS011;11164;48.818;2.322;2023-11-21T10:18:46;8.18;;;4.38;;
21999;SDS011;11164;48.818;2.322;2023-11-21T10:21:13;8.45;;;4.65;;
21999;SDS011;11164;48.818;2.322;2023-11-21T10:23:39;11.00;;;4.80;;
21999;SDS011;11164;48.818;2.322;2023-11-21T10:26:04;7.93;;;4.45;;
21999;SDS011;11164;48.818;2.322;2023-11-21T10:28:35;8.20;;;4.43;;
21999;SDS011;11164;48.818;2.322;2023-11-21T10:31:02;7.85;;;4.72;;
21999;SDS011;11164;48.818;2.322;2023-11-21T10:33:27;9.65;;;4.18;;
21999;SDS011;11164;48.818;2.322;2023-11-21T10:35:54;8.55;;;4.97;;
21999;SDS011;11164;48.818;2.322;2023-11-21T10:38:20;9.23;;;4.80;;
21999;SDS011;11164;48.818;2.322;2023-11-21T10:40:48;10.38;;;4.35;;
21999;SDS011;11164;48.818;2.322;2023-11-21T10:43:14;9.02;;;4.07;;
21999;SDS011;11164;48.818;2.322;2023-11-21T10:45:40;6.75;;;3.65;;
21999;SDS011;11164;48.818;2.322;2023-11-21T10:48:07;6.85;;;3.83;;
21999;SDS011;11164;48.818;2.322;2023-11-21T10:50:37;10.93;;;3.40;;
21999;SDS011;11164;48.818;2.322;2023-11-21T10:53:03;5.75;;;3.20;;
21999;SDS011;11164;48.818;2.322;2023-11-21T10:55:29;5.90;;;3.33;;
21999;SDS011;11164;48.818;2.322;2023-11-21T10:57:58;7.63;;;3.60;;
21999;SDS011;11164;48.818;2.322;2023-11-21T11:00:27;6.43;;;3.28;;
21999;SDS011;11164;48.818;2.322;2023-11-21T11:02:53;5.10;;;2.80;;
21999;SDS011;11164;48.818;2.322;2023-11-21T11:05:22;5.85;;;3.00;;
21999;SDS011;11164;48.818;2.322;2023-11-21T11:07:52;5.38;;;2.78;;
21999;SDS011;11164;48.818;2.322;2023-11-21T11:10:25;5.43;;;2.93;;
21999;SDS011;11164;48.818;2.322;2023-11-21T11:12:52;7.40;;;3.40;;
21999;SDS011;11164;48.818;2.322;2023-11-21T11:15:19;7.30;;;3.42;;
21999;SDS011;11164;48.818;2.322;2023-11-21T11:17:45;7.55;;;3.15;;
21999;SDS011;11164;48.818;2.322;2023-11-21T11:20:12;5.53;;;2.78;;
21999;SDS011;11164;48.818;2.322;2023-11-21T11:25:28;5.72;;;2.40;;
21999;SDS011;11164;48.818;2.322;2023-11-21T11:28:10;5.32;;;2.58;;
21999;SDS011;11164;48.818;2.322;2023-11-21T11:36:20;6.13;;;2.25;;
21999;SDS011;11164;48.818;2.322;2023-11-21T11:38:50;3.50;;;1.77;;
21999;SDS011;11164;48.818;2.322;2023-11-21T11:41:24;3.38;;;1.80;;
21999;SDS011;11164;48.818;2.322;2023-11-21T11:43:53;4.40;;;2.30;;
21999;SDS011;11164;48.818;2.322;2023-11-21T11:46:19;5.25;;;2.38;;
21999;SDS011;11164;48.818;2.322;2023-11-21T11:48:46;4.30;;;2.20;;
21999;SDS011;11164;48.818;2.322;2023-11-21T11:51:14;3.88;;;1.85;;
21999;SDS011;11164;48.818;2.322;2023-11-21T11:53:42;7.40;;;3.20;;
21999;SDS011;11164;48.818;2.322;2023-11-21T11:59:03;5.30;;;2.55;;
21999;SDS011;11164;48.818;2.322;2023-11-21T12:01:30;5.07;;;2.00;;
21999;SDS011;11164;48.818;2.322;2023-11-21T12:06:50;4.50;;;2.08;;
21999;SDS011;11164;48.818;2.322;2023-11-21T12:09:18;4.72;;;1.95;;
21999;SDS011;11164;48.818;2.322;2023-11-21T12:11:45;5.13;;;2.40;;
21999;SDS011;11164;48.818;2.322;2023-11-21T12:14:13;4.53;;;2.30;;
21999;SDS011;11164;48.818;2.322;2023-11-21T12:16:39;5.07;;;2.55;;
21999;SDS011;11164;48.818;2.322;2023-11-21T12:19:07;6.03;;;3.20;;
21999;SDS011;11164;48.818;2.322;2023-11-21T12:21:33;5.32;;;2.55;;
21999;SDS011;11164;48.818;2.322;2023-11-21T12:23:59;4.45;;;2.42;;
21999;SDS011;11164;48.818;2.322;2023-11-21T12:26:25;6.15;;;2.50;;
21999;SDS011;11164;48.818;2.322;2023-11-21T12:28:53;6.30;;;3.03;;
21999;SDS011;11164;48.818;2.322;2023-11-21T12:31:25;6.80;;;2.83;;
21999;SDS011;11164;48.818;2.322;2023-11-21T12:33:50;6.45;;;2.70;;
21999;SDS011;11164;48.818;2.322;2023-11-21T12:36:16;6.35;;;2.80;;
21999;SDS011;11164;48.818;2.322;2023-11-21T12:38:42;5.90;;;2.70;;
21999;SDS011;11164;48.818;2.322;2023-11-21T12:41:07;5.68;;;2.25;;
21999;SDS011;11164;48.818;2.322;2023-11-21T12:43:35;7.72;;;2.92;;
21999;SDS011;11164;48.818;2.322;2023-11-21T12:46:10;5.80;;;2.70;;
21999;SDS011;11164;48.818;2.322;2023-11-21T12:48:42;7.60;;;3.90;;
21999;SDS011;11164;48.818;2.322;2023-11-21T12:51:09;5.57;;;3.50;;
21999;SDS011;11164;48.818;2.322;2023-11-21T12:53:35;8.35;;;3.40;;
21999;SDS011;11164;48.818;2.322;2023-11-21T12:56:06;6.53;;;3.60;;
21999;SDS011;11164;48.818;2.322;2023-11-21T12:58:34;6.82;;;3.45;;
21999;SDS011;11164;48.818;2.322;2023-11-21T13:01:00;5.95;;;3.40;;
21999;SDS011;11164;48.818;2.322;2023-11-21T13:03:28;6.30;;;3.80;;
21999;SDS011;11164;48.818;2.322;2023-11-21T13:05:54;7.80;;;3.80;;
21999;SDS011;11164;48.818;2.322;2023-11-21T13:08:22;8.40;;;3.72;;
21999;SDS011;11164;48.818;2.322;2023-11-21T13:10:50;6.90;;;3.95;;
21999;SDS011;11164;48.818;2.322;2023-11-21T13:13:20;6.05;;;3.58;;
21999;SDS011;11164;48.818;2.322;2023-11-21T13:18:14;5.70;;;2.95;;
21999;SDS011;11164;48.818;2.322;2023-11-21T13:20:40;5.30;;;3.38;;
21999;SDS011;11164;48.818;2.322;2023-11-21T13:23:08;6.75;;;2.72;;
21999;SDS011;11164;48.818;2.322;2023-11-21T13:25:36;7.40;;;2.55;;
21999;SDS011;11164;48.818;2.322;2023-11-21T13:28:08;8.73;;;3.28;;
21999;SDS011;11164;48.818;2.322;2023-11-21T13:30:34;6.07;;;3.40;;
21999;SDS011;11164;48.818;2.322;2023-11-21T13:33:00;7.72;;;3.10;;
21999;SDS011;11164;48.818;2.322;2023-11-21T13:35:30;6.75;;;3.13;;
21999;SDS011;11164;48.818;2.322;2023-11-21T13:38:08;4.50;;;2.30;;
21999;SDS011;11164;48.818;2.322;2023-11-21T13:40:38;6.07;;;2.63;;
21999;SDS011;11164;48.818;2.322;2023-11-21T13:43:11;5.40;;;2.50;;
21999;SDS011;11164;48.818;2.322;2023-11-21T13:45:41;3.90;;;1.90;;
21999;SDS011;11164;48.818;2.322;2023-11-21T13:48:08;5.40;;;2.22;;
21999;SDS011;11164;48.818;2.322;2023-11-21T13:50:56;5.57;;;2.20;;
21999;SDS011;11164;48.818;2.322;2023-11-21T13:53:28;4.65;;;2.00;;
21999;SDS011;11164;48.818;2.322;2023-11-21T13:55:54;4.00;;;2.10;;
21999;SDS011;11164;48.818;2.322;2023-11-21T13:58:20;4.80;;;1.90;;
21999;SDS011;11164;48.818;2.322;2023-11-21T14:01:04;5.13;;;2.30;;
21999;SDS011;11164;48.818;2.322;2023-11-21T14:03:31;3.95;;;1.90;;
21999;SDS011;11164;48.818;2.322;2023-11-21T14:06:09;4.97;;;1.70;;
21999;SDS011;11164;48.818;2.322;2023-11-21T14:08:39;6.53;;;3.40;;
21999;SDS011;11164;48.818;2.322;2023-11-21T14:11:06;22.90;;;13.73;;
21999;SDS011;11164;48.818;2.322;2023-11-21T14:13:31;4.45;;;2.38;;
21999;SDS011;11164;48.818;2.322;2023-11-21T14:15:57;3.70;;;1.90;;
21999;SDS011;11164;48.818;2.322;2023-11-21T14:18:24;3.80;;;1.95;;
21999;SDS011;11164;48.818;2.322;2023-11-21T14:21:03;4.28;;;2.20;;
21999;SDS011;11164;48.818;2.322;2023-11-21T14:23:30;4.03;;;1.80;;
21999;SDS011;11164;48.818;2.322;2023-11-21T14:25:56;3.05;;;1.70;;
21999;SDS011;11164;48.818;2.322;2023-11-21T14:28:22;3.58;;;1.70;;
21999;SDS011;11164;48.818;2.322;2023-11-21T14:30:48;4.07;;;1.80;;
21999;SDS011;11164;48.818;2.322;2023-11-21T14:33:13;4.05;;;1.60;;
21999;SDS011;11164;48.818;2.322;2023-11-21T14:35:41;4.38;;;1.60;;
21999;SDS011;11164;48.818;2.322;2023-11-21T14:38:07;3.22;;;1.75;;
21999;SDS011;11164;48.818;2.322;2023-11-21T14:40:32;3.10;;;1.40;;
21999;SDS011;11164;48.818;2.322;2023-11-21T14:43:02;4.25;;;1.83;;
21999;SDS011;11164;48.818;2.322;2023-11-21T14:45:31;6.18;;;1.80;;
21999;SDS011;11164;48.818;2.322;2023-11-21T14:47:57;4.40;;;2.10;;
21999;SDS011;11164;48.818;2.322;2023-11-21T14:50:32;4.78;;;1.98;;
21999;SDS011;11164;48.818;2.322;2023-11-21T14:53:08;4.18;;;1.70;;
21999;SDS011;11164;48.818;2.322;2023-11-21T14:55:34;6.70;;;2.10;;
21999;SDS011;11164;48.818;2.322;2023-11-21T14:58:19;6.63;;;2.08;;
21999;SDS011;11164;48.818;2.322;2023-11-21T15:00:55;4.28;;;1.95;;